Time;durP1;ratioP1;P1;durP2;ratioP2;P2;SDS_P1;SDS_P2;PMS_P1;PMS_P2;Temp;Humidity;BMP_temperature;BMP_pressure;BME280_temperature;BME280_humidity;BME280_pressure;Samples;Min_cycle;Max_cycle;Signal;HPM_P1;HPM_P2
2023/02/01 00:00:54;;;;;;;13.27;3.07;;;;;;;4.50;82.43;100790.88;5045448;28;20210;-73
2023/02/01 00:03:20;;;;;;;12.73;2.90;;;;;;;4.50;82.10;100801.44;5044273;28;20551;-73
2023/02/01 00:05:56;;;;;;;13.00;2.13;;;;;;;4.49;82.59;100797.06;5044129;28;20839;-73
2023/02/01 00:08:23;;;;;;;10.20;2.67;;;;;;;4.47;82.63;100798.94;5042597;28;20697;-73
2023/02/01 00:10:49;;;;;;;9.77;2.13;;;;;;;4.48;82.75;100795.34;5048888;28;20725;-72
2023/02/01 00:13:15;;;;;;;9.30;2.30;;;;;;;4.48;82.71;100789.22;5048791;28;20206;-73
2023/02/01 00:15:43;;;;;;;15.03;3.27;;;;;;;4.48;82.60;100783.94;5048207;28;20218;-73
2023/02/01 00:18:10;;;;;;;13.47;3.80;;;;;;;4.46;82.70;100777.91;5045378;28;20202;-73
2023/02/01 00:20:36;;;;;;;13.80;3.07;;;;;;;4.46;82.81;100783.16;5051685;28;20204;-72
2023/02/01 00:23:02;;;;;;;13.97;3.73;;;;;;;4.47;83.00;100787.53;5050084;28;20300;-73
2023/02/01 00:25:29;;;;;;;12.57;2.60;;;;;;;4.43;83.04;100775.34;5046253;28;20245;-72
2023/02/01 00:27:58;;;;;;;13.87;2.70;;;;;;;4.43;82.94;100775.34;5045313;28;20225;-75
2023/02/01 00:30:25;;;;;;;7.27;2.40;;;;;;;4.42;83.34;100773.63;5046803;28;20216;-73
2023/02/01 00:32:52;;;;;;;9.83;2.20;;;;;;;4.41;83.38;100782.47;5045554;28;20675;-73
2023/02/01 00:35:19;;;;;;;11.10;3.17;;;;;;;4.41;83.13;100774.56;5045150;28;20254;-73
2023/02/01 00:37:45;;;;;;;11.80;2.40;;;;;;;4.40;83.28;100762.28;5045380;28;20201;-73
2023/02/01 00:40:13;;;;;;;11.80;2.43;;;;;;;4.36;83.72;100772.06;5046199;28;20209;-73
2023/02/01 00:42:39;;;;;;;18.80;3.53;;;;;;;4.36;83.69;100766.78;5049510;28;20301;-73
2023/02/01 00:45:07;;;;;;;14.03;3.03;;;;;;;4.35;83.37;100769.50;5045208;28;20221;-75
2023/02/01 00:47:33;;;;;;;14.00;2.83;;;;;;;4.33;83.25;100774.81;5044785;28;20209;-73
2023/02/01 00:50:01;;;;;;;13.20;3.63;;;;;;;4.33;83.31;100769.53;5051075;28;20204;-73
2023/02/01 00:52:28;;;;;;;16.37;3.70;;;;;;;4.33;83.41;100776.59;5045538;28;20217;-73
2023/02/01 00:54:54;;;;;;;14.50;3.03;;;;;;;4.33;83.50;100759.00;5050939;28;20221;-73
2023/02/01 00:57:20;;;;;;;17.17;2.40;;;;;;;4.32;83.67;100762.53;5040690;28;20214;-73
2023/02/01 00:59:47;;;;;;;14.40;3.00;;;;;;;4.32;83.41;100757.28;5047917;28;20208;-72
2023/02/01 01:02:15;;;;;;;17.67;3.17;;;;;;;4.31;83.57;100758.19;5051065;28;20204;-73
2023/02/01 01:04:42;;;;;;;12.43;2.83;;;;;;;4.30;83.52;100758.28;5048089;28;20291;-73
2023/02/01 01:07:10;;;;;;;11.77;2.70;;;;;;;4.27;83.49;100761.00;5047733;28;20706;-73
2023/02/01 01:09:36;;;;;;;13.77;2.73;;;;;;;4.24;83.87;100755.84;5046709;28;20214;-72
2023/02/01 01:12:03;;;;;;;12.83;2.57;;;;;;;4.23;83.65;100746.22;5045496;28;20209;-73
2023/02/01 01:14:29;;;;;;;11.53;2.40;;;;;;;4.24;83.99;100743.53;5049380;28;20264;-72
2023/02/01 01:16:56;;;;;;;12.67;2.47;;;;;;;4.21;83.81;100737.50;5046665;28;20193;-73
2023/02/01 01:19:22;;;;;;;14.23;3.43;;;;;;;4.23;83.85;100738.31;5049522;28;20213;-72
2023/02/01 01:21:49;;;;;;;16.63;2.57;;;;;;;4.21;83.54;100748.91;5049758;28;20280;-73
2023/02/01 01:24:17;;;;;;;14.03;3.10;;;;;;;4.16;83.69;100741.13;5048990;28;20218;-73
2023/02/01 01:26:43;;;;;;;19.50;3.70;;;;;;;4.15;83.83;100744.69;5047628;28;20222;-73
2023/02/01 01:29:10;;;;;;;16.80;3.27;;;;;;;4.15;84.10;100744.69;5043635;28;20208;-72
2023/02/01 01:31:36;;;;;;;16.03;3.43;;;;;;;4.15;84.05;100739.41;5045892;28;20209;-73
2023/02/01 01:34:03;;;;;;;10.03;3.73;;;;;;;4.16;83.75;100735.00;5044275;28;20256;-73
2023/02/01 01:36:29;;;;;;;14.27;3.20;;;;;;;4.15;83.97;100741.19;5047114;28;20202;-72
2023/02/01 01:38:56;;;;;;;9.27;3.00;;;;;;;4.14;84.24;100732.44;5045811;28;20659;-73
2023/02/01 01:41:26;;;;;;;9.97;2.23;;;;;;;4.13;84.06;100732.47;5048146;28;20207;-73
2023/02/01 01:43:56;;;;;;;13.80;3.50;;;;;;;4.11;84.02;100726.44;5048207;28;20194;-72
2023/02/01 01:46:25;;;;;;;15.93;2.70;;;;;;;4.10;84.13;100732.63;5044874;28;20226;-73
2023/02/01 01:48:58;;;;;;;12.40;3.10;;;;;;;4.10;84.22;100728.19;5045107;28;20198;-73
2023/02/01 01:51:26;;;;;;;14.73;3.00;;;;;;;4.10;84.07;100724.72;5046241;28;21467;-73
2023/02/01 01:54:00;;;;;;;12.67;2.93;;;;;;;4.10;84.26;100724.72;5048038;28;20208;-73
2023/02/01 01:56:29;;;;;;;13.57;3.30;;;;;;;4.09;84.02;100728.25;5049127;28;20220;-73
2023/02/01 01:58:56;;;;;;;14.37;3.33;;;;;;;4.09;84.16;100723.84;5047752;28;20205;-74
2023/02/01 02:01:22;;;;;;;20.10;4.57;;;;;;;4.08;84.18;100722.13;5044910;28;20210;-73
2023/02/01 02:03:49;;;;;;;18.43;3.93;;;;;;;4.08;84.40;100722.13;5049863;28;20232;-73
2023/02/01 02:06:27;;;;;;;13.10;2.77;;;;;;;4.07;84.18;100701.94;5037783;28;20229;-73
2023/02/01 02:08:54;;;;;;;11.57;2.43;;;;;;;4.08;84.13;100711.56;5040328;28;20202;-72
2023/02/01 02:11:20;;;;;;;16.13;3.23;;;;;;;4.06;84.69;100709.91;5050069;28;20202;-73
2023/02/01 02:13:51;;;;;;;12.17;3.13;;;;;;;4.02;84.54;100709.16;5047161;28;20201;-74
2023/02/01 02:16:29;;;;;;;17.67;3.27;;;;;;;4.05;84.73;100716.94;5050341;28;20194;-73
2023/02/01 02:19:09;;;;;;;12.20;2.90;;;;;;;4.03;84.49;100708.25;5044542;28;20242;-74
2023/02/01 02:21:54;;;;;;;14.77;2.70;;;;;;;4.00;84.66;100703.06;5042276;28;20201;-74
2023/02/01 02:24:43;;;;;;;15.80;2.93;;;;;;;4.00;84.83;100707.47;5044510;28;20741;-73
2023/02/01 02:27:27;;;;;;;11.63;3.03;;;;;;;3.99;85.54;100709.25;5047581;28;20727;-73
2023/02/01 02:30:37;;;;;;;7.60;2.43;;;;;;;4.01;85.30;100704.78;5045729;28;20209;-73
2023/02/01 02:33:31;;;;;;;10.67;2.83;;;;;;;4.04;85.10;100702.06;5013555;28;20229;-74
2023/02/01 02:36:02;;;;;;;12.80;3.30;;;;;;;4.05;85.54;100687.97;5043481;28;20221;-73
2023/02/01 02:38:39;;;;;;;11.67;2.50;;;;;;;4.07;84.92;100698.47;5044235;28;20676;-73
2023/02/01 02:47:23;;;;;;;16.00;3.30;;;;;;;4.07;85.56;100682.63;5045429;28;20201;-73
2023/02/01 02:54:44;;;;;;;10.87;2.50;;;;;;;4.10;85.99;100687.81;5044690;28;20449;-71
2023/02/01 02:55:20;;;;;;;10.13;2.97;;;;;;;4.11;85.82;100669.31;5041711;28;20259;-74
2023/02/01 03:06:05;;;;;;;10.57;3.30;;;;;;;4.14;85.56;100644.59;5044747;28;20212;-73
2023/02/01 03:08:32;;;;;;;12.67;3.73;;;;;;;4.17;85.31;100642.69;5042242;28;20205;-72
2023/02/01 03:11:03;;;;;;;14.90;3.80;;;;;;;4.17;85.41;100640.06;5041802;28;20201;-74
2023/02/01 03:13:36;;;;;;;14.17;2.63;;;;;;;4.21;85.29;100635.53;5045680;28;20717;-74
2023/02/01 03:16:13;;;;;;;10.97;2.87;;;;;;;4.24;85.33;100639.84;5041192;28;20233;-73
2023/02/01 03:18:47;;;;;;;8.13;3.40;;;;;;;4.23;85.06;100611.75;5044316;28;20510;-73
2023/02/01 03:21:20;;;;;;;14.13;3.63;;;;;;;4.25;84.91;100628.38;5044092;28;20208;-75
2023/02/01 03:23:49;;;;;;;17.93;3.67;;;;;;;4.27;85.40;100626.56;5044051;28;20289;-73
2023/02/01 03:26:20;;;;;;;11.27;3.03;;;;;;;4.28;85.31;100612.47;5044366;28;20225;-75
2023/02/01 03:28:52;;;;;;;12.80;3.00;;;;;;;4.29;84.77;100615.03;5043778;28;20213;-72
2023/02/01 03:31:18;;;;;;;13.73;3.63;;;;;;;4.29;84.72;100609.75;5044762;28;20220;-73
2023/02/01 03:33:45;;;;;;;10.67;3.10;;;;;;;4.26;85.12;100614.28;5042757;28;20209;-73
2023/02/01 03:36:19;;;;;;;17.83;3.60;;;;;;;4.29;85.32;100615.03;5045409;28;20205;-73
2023/02/01 03:38:52;;;;;;;13.33;3.43;;;;;;;4.34;85.07;100612.22;5041029;28;20284;-73
2023/02/01 03:41:25;;;;;;;12.63;3.47;;;;;;;4.38;85.52;100611.19;5040715;28;20217;-73
2023/02/01 03:43:56;;;;;;;14.93;3.50;;;;;;;4.39;85.14;100604.97;5037975;28;20213;-73
2023/02/01 03:46:32;;;;;;;9.60;3.40;;;;;;;4.38;85.50;100604.13;5097365;22;20260;-73
2023/02/01 03:49:02;;;;;;;15.53;3.90;;;;;;;4.40;85.66;100596.16;5079888;28;20204;-73
2023/02/01 03:51:31;;;;;;;14.83;4.47;;;;;;;4.42;85.35;100603.09;5088554;28;20220;-73
2023/02/01 03:53:59;;;;;;;14.57;3.60;;;;;;;4.44;85.89;100598.63;5088356;28;20216;-73
2023/02/01 03:56:28;;;;;;;12.57;3.53;;;;;;;4.44;86.16;100592.50;5081209;28;20275;-72
2023/02/01 03:59:00;;;;;;;12.87;3.23;;;;;;;4.45;86.00;100578.38;5078401;28;20201;-73
2023/02/01 04:01:29;;;;;;;12.70;3.67;;;;;;;4.46;85.95;100580.97;5083037;28;20282;-73
2023/02/01 04:03:56;;;;;;;15.00;4.50;;;;;;;4.44;87.00;100574.03;5079966;28;20580;-74
2023/02/01 04:06:22;;;;;;;13.10;3.17;;;;;;;4.44;86.95;100566.13;5078015;28;20234;-74
2023/02/01 04:08:51;;;;;;;21.23;4.20;;;;;;;4.42;87.10;100568.81;5089786;28;20231;-74
2023/02/01 04:11:18;;;;;;;21.40;4.30;;;;;;;4.43;87.03;100565.25;5094645;28;20208;-75
2023/02/01 04:13:45;;;;;;;14.20;3.53;;;;;;;4.44;87.24;100558.22;5089674;28;20599;-74
2023/02/01 04:16:11;;;;;;;11.53;3.60;;;;;;;4.41;87.80;100553.06;5087547;28;20227;-74
2023/02/01 04:18:38;;;;;;;15.00;3.97;;;;;;;4.36;88.18;100547.09;5085314;28;20208;-74
2023/02/01 04:21:05;;;;;;;16.57;4.33;;;;;;;4.37;88.65;100562.00;5083260;28;20200;-74
2023/02/01 04:23:32;;;;;;;15.07;3.80;;;;;;;4.34;88.33;100551.56;5087343;28;20208;-74
2023/02/01 04:26:02;;;;;;;12.63;3.97;;;;;;;4.33;89.01;100558.63;5082269;28;20255;-74
2023/02/01 04:28:29;;;;;;;16.00;3.90;;;;;;;4.35;89.05;100550.66;5083248;28;20224;-74
2023/02/01 04:30:56;;;;;;;13.10;3.90;;;;;;;4.36;89.16;100541.81;5083987;28;20211;-74
2023/02/01 04:33:22;;;;;;;13.67;4.00;;;;;;;4.37;89.28;100538.25;5083775;28;20204;-74
2023/02/01 04:35:48;;;;;;;12.00;4.27;;;;;;;4.34;89.46;100546.28;5085011;28;20220;-74
2023/02/01 04:38:15;;;;;;;17.97;4.63;;;;;;;4.34;89.44;100526.06;5086737;28;20207;-73
2023/02/01 04:40:41;;;;;;;14.43;3.80;;;;;;;4.36;89.17;100531.28;5084925;28;20208;-74
2023/02/01 04:43:09;;;;;;;13.00;3.77;;;;;;;4.36;89.49;100523.38;5086629;28;20223;-74
2023/02/01 04:45:36;;;;;;;12.20;3.97;;;;;;;4.35;89.44;100530.41;5087082;28;20227;-74
2023/02/01 04:48:02;;;;;;;13.07;3.70;;;;;;;4.38;88.89;100526.81;5087836;28;20224;-74
2023/02/01 04:50:29;;;;;;;10.60;3.77;;;;;;;4.40;88.71;100511.78;5086804;28;20507;-73
2023/02/01 04:52:55;;;;;;;12.57;4.40;;;;;;;4.41;88.72;100522.28;5087598;28;20572;-74
2023/02/01 04:55:21;;;;;;;12.00;3.63;;;;;;;4.42;88.69;100516.06;5087927;28;20746;-74
2023/02/01 04:57:48;;;;;;;15.10;4.47;;;;;;;4.44;88.44;100508.97;5088124;28;20657;-73
2023/02/01 05:00:17;;;;;;;14.30;3.23;;;;;;;4.46;88.72;100506.28;5086568;28;20223;-73
2023/02/01 05:02:43;;;;;;;12.87;4.33;;;;;;;4.47;88.41;100500.09;5085441;28;20684;-74
2023/02/01 05:05:10;;;;;;;13.93;3.60;;;;;;;4.46;87.87;100491.31;5082440;28;20216;-74
2023/02/01 05:07:36;;;;;;;12.47;4.20;;;;;;;4.47;87.83;100484.25;5089084;28;20230;-73
2023/02/01 05:10:03;;;;;;;11.70;4.33;;;;;;;4.49;88.09;100498.22;5086073;28;20200;-74
2023/02/01 05:15:15;;;;;;;17.60;3.57;;;;;;;4.48;88.01;100504.41;5083898;28;20521;-74
2023/02/01 05:17:42;;;;;;;12.43;3.27;;;;;;;4.49;87.88;100492.94;5079756;28;20200;-73
2023/02/01 05:20:10;;;;;;;14.37;3.87;;;;;;;4.51;87.89;100488.47;5084920;28;20200;-73
2023/02/01 05:22:37;;;;;;;16.00;4.03;;;;;;;4.52;88.35;100487.53;5086162;28;20211;-74
2023/02/01 05:25:03;;;;;;;13.10;3.63;;;;;;;4.50;87.94;100484.97;5082828;28;20223;-73
2023/02/01 05:27:30;;;;;;;11.70;2.97;;;;;;;4.50;88.26;100484.97;5083190;28;20717;-73
2023/02/01 05:29:57;;;;;;;10.90;3.50;;;;;;;4.51;88.13;100484.03;5082691;28;20285;-74
2023/02/01 05:32:25;;;;;;;13.53;3.40;;;;;;;4.50;88.41;100476.19;5080039;28;20200;-74
2023/02/01 05:34:51;;;;;;;14.47;4.57;;;;;;;4.48;88.64;100470.97;5083550;28;20220;-74
2023/02/01 05:37:20;;;;;;;12.97;3.57;;;;;;;4.48;88.17;100478.03;5082895;28;20201;-74
2023/02/01 05:39:46;;;;;;;13.97;3.70;;;;;;;4.47;88.51;100481.63;5086890;28;20200;-73
2023/02/01 05:42:13;;;;;;;11.47;2.50;;;;;;;4.49;88.44;100474.47;5087148;28;20223;-74
2023/02/01 05:44:39;;;;;;;13.87;4.03;;;;;;;4.48;88.86;100481.53;5087848;28;20200;-73
2023/02/01 05:47:06;;;;;;;19.47;3.20;;;;;;;4.43;89.15;100470.34;5089318;28;20224;-74
2023/02/01 05:49:34;;;;;;;11.10;2.90;;;;;;;4.42;88.93;100484.44;5088469;28;20208;-76
2023/02/01 05:52:00;;;;;;;12.53;3.20;;;;;;;4.45;88.84;100486.94;5087647;28;20593;-74
2023/02/01 05:54:26;;;;;;;14.00;4.80;;;;;;;4.43;88.88;100485.28;5085593;28;20230;-74
2023/02/01 05:56:53;;;;;;;12.77;2.83;;;;;;;4.45;89.35;100478.19;5090039;28;20204;-74
2023/02/01 05:59:19;;;;;;;9.40;2.90;;;;;;;4.47;88.83;100476.34;5084389;28;20203;-74
2023/02/01 06:01:46;;;;;;;10.70;3.07;;;;;;;4.47;89.16;100465.81;5087564;28;20240;-74
2023/02/01 06:04:12;;;;;;;15.67;2.90;;;;;;;4.49;89.35;100458.66;5090339;28;20204;-73
2023/02/01 06:06:40;;;;;;;8.87;2.80;;;;;;;4.50;89.11;100461.22;5090482;28;20239;-74
2023/02/01 06:09:07;;;;;;;13.17;2.67;;;;;;;4.52;89.03;100455.91;5084187;28;20223;-74
2023/02/01 06:11:33;;;;;;;10.93;3.30;;;;;;;4.50;88.91;100468.28;5090557;28;20231;-73
2023/02/01 06:14:00;;;;;;;8.47;2.67;;;;;;;4.51;89.02;100452.41;5085883;28;20204;-75
2023/02/01 06:16:28;;;;;;;13.23;2.70;;;;;;;4.58;88.92;100463.56;5089084;28;20236;-74
2023/02/01 06:18:54;;;;;;;10.07;2.47;;;;;;;4.58;88.79;100457.44;5091045;28;20200;-74
2023/02/01 06:21:24;;;;;;;6.50;2.07;;;;;;;4.56;89.08;100452.22;5094587;28;20207;-74
2023/02/01 06:23:52;;;;;;;11.60;3.10;;;;;;;4.57;88.83;100456.56;5092670;28;20286;-74
2023/02/01 06:26:18;;;;;;;9.93;2.60;;;;;;;4.55;88.63;100447.84;5086251;28;20632;-74
2023/02/01 06:28:45;;;;;;;9.03;2.60;;;;;;;4.54;89.18;100446.13;5091710;28;20254;-74
2023/02/01 06:31:11;;;;;;;11.40;3.27;;;;;;;4.54;89.56;100452.28;5087292;28;20207;-74
2023/02/01 06:33:38;;;;;;;8.30;2.40;;;;;;;4.56;89.35;100446.94;5088746;28;20700;-73
2023/02/01 06:36:07;;;;;;;8.90;2.80;;;;;;;4.56;89.55;100438.16;5082393;28;20232;-79
2023/02/01 06:38:35;;;;;;;8.00;2.67;;;;;;;4.55;89.72;100442.59;5090756;28;20208;-80
2023/02/01 06:41:04;;;;;;;10.87;2.73;;;;;;;4.56;89.59;100449.56;5086933;28;20228;-78
2023/02/01 06:43:32;;;;;;;6.03;2.40;;;;;;;4.58;89.48;100446.88;5086306;28;20743;-78
2023/02/01 06:46:01;;;;;;;6.47;2.07;;;;;;;4.53;89.64;100447.06;5092186;28;20362;-78
2023/02/01 06:48:27;;;;;;;6.90;2.20;;;;;;;4.51;90.08;100468.22;5088660;28;20301;-78
2023/02/01 06:50:53;;;;;;;6.90;2.30;;;;;;;4.52;90.18;100471.72;5090661;28;20223;-78
2023/02/01 06:53:20;;;;;;;9.30;2.33;;;;;;;4.50;90.26;100481.47;5089128;28;20204;-77
2023/02/01 06:55:53;;;;;;;5.67;2.40;;;;;;;4.47;90.57;100479.84;5085831;28;20224;-77
2023/02/01 06:58:21;;;;;;;9.50;3.30;;;;;;;4.47;90.81;100487.75;5082873;28;20265;-77
2023/02/01 07:00:48;;;;;;;3.90;2.37;;;;;;;4.45;91.69;100463.22;5088295;28;20700;-78
2023/02/01 07:03:14;;;;;;;6.00;2.53;;;;;;;4.42;91.83;100478.31;5091064;28;20203;-77
2023/02/01 07:05:41;;;;;;;9.47;2.70;;;;;;;4.43;91.80;100491.44;5084339;28;20223;-77
2023/02/01 07:08:07;;;;;;;12.57;2.63;;;;;;;4.43;92.04;100485.28;5092353;28;20246;-78
2023/02/01 07:10:35;;;;;;;10.27;2.60;;;;;;;4.41;92.31;100506.44;5085056;28;20208;-77
2023/02/01 07:13:01;;;;;;;9.77;2.80;;;;;;;4.40;93.13;100510.00;5085981;28;20815;-78
2023/02/01 07:15:29;;;;;;;9.23;2.90;;;;;;;4.39;93.03;100503.00;5079793;28;20722;-78
2023/02/01 07:17:56;;;;;;;7.33;3.00;;;;;;;4.41;93.17;100503.81;5089137;28;20220;-78
2023/02/01 07:20:23;;;;;;;9.90;3.03;;;;;;;4.41;93.22;100497.69;5088862;28;20222;-78
2023/02/01 07:22:49;;;;;;;8.40;3.43;;;;;;;4.39;93.18;100503.00;5090778;28;20203;-76
2023/02/01 07:25:16;;;;;;;9.17;2.83;;;;;;;4.37;94.20;100506.63;5087859;28;20212;-76
2023/02/01 07:27:42;;;;;;;12.13;2.53;;;;;;;4.37;94.28;100511.91;5086816;28;20227;-76
2023/02/01 07:30:10;;;;;;;8.70;2.23;;;;;;;4.38;94.06;100509.19;5091259;28;20207;-77
2023/02/01 07:32:38;;;;;;;10.23;2.67;;;;;;;4.38;94.52;100501.28;5086306;28;20223;-77
2023/02/01 07:35:05;;;;;;;9.57;3.13;;;;;;;4.43;94.52;100501.13;5087885;28;20223;-77
2023/02/01 07:37:32;;;;;;;12.83;2.93;;;;;;;4.43;94.10;100496.69;5081466;28;20231;-74
2023/02/01 07:39:58;;;;;;;7.07;2.23;;;;;;;4.39;94.05;100495.09;5088772;28;20579;-79
2023/02/01 07:42:25;;;;;;;12.00;3.00;;;;;;;4.38;94.24;100505.72;5087457;28;20705;-78
2023/02/01 07:44:51;;;;;;;7.33;2.80;;;;;;;4.38;94.21;100503.06;5088378;28;20227;-77
2023/02/01 07:47:17;;;;;;;11.10;3.37;;;;;;;4.38;94.46;100485.47;5084075;28;20209;-78
2023/02/01 07:49:45;;;;;;;7.67;2.50;;;;;;;4.40;94.35;100494.19;5089455;28;20211;-76
2023/02/01 07:52:12;;;;;;;10.13;2.37;;;;;;;4.45;93.75;100501.91;5085115;28;20883;-78
2023/02/01 07:54:39;;;;;;;7.63;2.37;;;;;;;4.47;93.86;100503.56;5092835;28;20269;-78
2023/02/01 07:57:05;;;;;;;9.23;2.43;;;;;;;4.52;93.73;100514.78;5089837;28;20209;-78
2023/02/01 07:59:32;;;;;;;12.73;2.80;;;;;;;4.56;93.46;100514.66;5092284;28;20292;-78
2023/02/01 08:01:57;;;;;;;10.60;2.77;;;;;;;4.58;93.00;100510.19;5086861;28;20204;-77
2023/02/01 08:04:24;;;;;;;9.50;2.97;;;;;;;4.60;93.11;100514.47;5086417;28;20569;-77
2023/02/01 08:06:51;;;;;;;13.57;2.93;;;;;;;4.64;92.88;100505.53;5082439;28;20700;-78
2023/02/01 08:09:18;;;;;;;13.80;3.20;;;;;;;4.66;92.58;100513.38;5085922;28;20219;-78
2023/02/01 08:11:44;;;;;;;9.10;2.70;;;;;;;4.68;92.14;100519.41;5087188;28;20614;-78
2023/02/01 08:14:11;;;;;;;13.70;3.37;;;;;;;4.69;92.30;100514.09;5086827;28;20216;-77
2023/02/01 08:16:39;;;;;;;6.07;2.83;;;;;;;4.71;91.77;100528.06;5079533;28;20248;-77
2023/02/01 08:19:05;;;;;;;10.93;2.47;;;;;;;4.74;91.80;100529.72;5086431;28;20192;-77
2023/02/01 08:21:36;;;;;;;15.13;3.03;;;;;;;4.77;91.73;100532.25;5088512;28;20720;-77
2023/02/01 08:24:05;;;;;;;10.10;3.10;;;;;;;4.78;91.42;100528.69;5089383;28;20206;-78
2023/02/01 08:26:32;;;;;;;11.53;2.70;;;;;;;4.81;91.02;100526.78;5085098;28;20228;-78
2023/02/01 08:29:01;;;;;;;10.50;2.77;;;;;;;4.81;91.22;100529.44;5089632;28;20638;-79
2023/02/01 08:31:29;;;;;;;10.27;2.60;;;;;;;4.83;90.94;100532.00;5082203;28;20204;-78
2023/02/01 08:33:58;;;;;;;9.47;3.23;;;;;;;4.83;90.75;100538.13;5081791;28;20215;-74
2023/02/01 08:36:26;;;;;;;9.73;2.73;;;;;;;4.86;90.06;100540.63;5077041;28;20232;-75
2023/02/01 08:38:53;;;;;;;14.07;3.03;;;;;;;4.86;90.58;100540.63;5082047;28;20196;-75
2023/02/01 08:41:23;;;;;;;11.43;2.70;;;;;;;4.88;90.42;100554.63;5086179;28;20211;-75
2023/02/01 08:43:50;;;;;;;12.23;2.83;;;;;;;4.88;90.12;100541.41;5086358;28;20207;-75
2023/02/01 08:46:17;;;;;;;9.10;2.50;;;;;;;4.89;89.73;100535.22;5086956;28;20228;-76
2023/02/01 08:48:43;;;;;;;8.90;2.43;;;;;;;4.95;89.48;100538.53;5085998;28;20231;-75
2023/02/01 08:51:13;;;;;;;11.43;2.20;;;;;;;4.97;89.35;100539.34;5086127;28;20207;-76
2023/02/01 08:53:41;;;;;;;8.33;2.17;;;;;;;4.98;89.05;100544.56;5087606;28;20207;-76
2023/02/01 08:56:09;;;;;;;12.47;2.80;;;;;;;5.01;89.10;100551.50;5083851;28;20254;-75
2023/02/01 08:58:37;;;;;;;11.03;2.30;;;;;;;5.03;88.80;100541.69;5085586;28;20204;-75
2023/02/01 09:01:05;;;;;;;7.37;2.40;;;;;;;5.06;88.44;100537.16;5083956;28;20207;-76
2023/02/01 09:03:31;;;;;;;17.63;4.10;;;;;;;5.10;87.73;100545.81;5081941;28;20231;-75
2023/02/01 09:06:01;;;;;;;9.83;2.97;;;;;;;5.14;87.40;100542.13;5084376;28;20230;-75
2023/02/01 09:08:28;;;;;;;8.67;2.30;;;;;;;5.16;87.18;100543.78;5087725;28;20314;-76
2023/02/01 09:10:54;;;;;;;10.83;2.87;;;;;;;5.20;86.90;100541.84;5082807;28;20204;-75
2023/02/01 09:13:22;;;;;;;13.33;3.00;;;;;;;5.21;86.47;100551.47;5087063;28;20196;-76
2023/02/01 09:15:51;;;;;;;11.40;2.90;;;;;;;5.23;86.25;100547.00;5082767;28;20216;-76
2023/02/01 09:18:17;;;;;;;10.33;2.97;;;;;;;5.27;85.72;100542.44;5084865;28;20211;-75
2023/02/01 09:20:44;;;;;;;8.40;2.07;;;;;;;5.32;85.56;100520.19;5086333;28;20201;-75
2023/02/01 09:23:10;;;;;;;7.93;1.53;;;;;;;5.38;85.16;100553.38;5091758;28;20227;-76
2023/02/01 09:25:38;;;;;;;10.63;2.50;;;;;;;5.44;84.98;100530.22;5091682;28;20720;-75
2023/02/01 09:28:05;;;;;;;7.83;1.90;;;;;;;5.49;85.03;100536.16;5089260;28;20725;-75
2023/02/01 09:30:32;;;;;;;11.07;2.57;;;;;;;5.51;84.48;100550.16;5090995;28;20280;-75
2023/02/01 09:33:00;;;;;;;8.30;2.20;;;;;;;5.54;84.11;100557.09;5089588;28;20219;-76
2023/02/01 09:35:26;;;;;;;8.17;2.17;;;;;;;5.54;84.35;100541.25;5089990;28;20231;-76
2023/02/01 09:37:53;;;;;;;7.93;2.20;;;;;;;5.57;84.39;100541.09;5088519;28;20281;-75
2023/02/01 09:40:21;;;;;;;10.33;2.90;;;;;;;5.61;84.41;100547.94;5092724;28;20602;-75
2023/02/01 09:43:03;;;;;;;12.13;2.30;;;;;;;5.60;84.41;100546.25;5080199;28;20205;-76
2023/02/01 09:45:37;;;;;;;8.93;2.33;;;;;;;5.61;84.68;100569.09;5091326;28;20306;-76
2023/02/01 09:48:13;;;;;;;7.50;2.27;;;;;;;5.62;84.68;100548.81;5089079;28;20212;-76
2023/02/01 09:50:45;;;;;;;11.33;2.30;;;;;;;5.65;84.54;100556.59;5089617;28;20208;-76
2023/02/01 09:53:16;;;;;;;8.23;2.17;;;;;;;5.65;84.63;100554.81;5088258;28;20534;-75
2023/02/01 09:55:46;;;;;;;9.73;2.50;;;;;;;5.67;84.17;100552.13;5084935;28;20235;-76
2023/02/01 09:58:17;;;;;;;8.83;2.40;;;;;;;5.69;84.00;100558.19;5088676;28;20331;-76
2023/02/01 10:00:49;;;;;;;6.87;2.30;;;;;;;5.71;83.51;100544.00;5083932;28;20204;-76
2023/02/01 10:03:17;;;;;;;7.27;2.50;;;;;;;5.73;83.48;100547.41;5088845;28;20204;-75
2023/02/01 10:06:14;;;;;;;13.87;2.77;;;;;;;5.76;83.85;100567.53;5086310;28;20224;-76
2023/02/01 10:08:59;;;;;;;8.57;2.60;;;;;;;5.78;83.18;100548.06;5085065;28;20220;-76
2023/02/01 10:11:47;;;;;;;11.97;2.73;;;;;;;5.81;83.28;100552.34;5082578;28;20212;-76
2023/02/01 10:14:30;;;;;;;13.73;2.90;;;;;;;5.82;82.80;100546.13;5086661;28;20277;-77
2023/02/01 10:17:03;;;;;;;8.50;2.20;;;;;;;5.82;82.24;100551.44;5089195;28;20210;-75
2023/02/01 10:19:42;;;;;;;5.53;2.50;;;;;;;5.83;82.21;100539.94;5090368;28;20207;-77
2023/02/01 10:22:12;;;;;;;8.53;2.83;;;;;;;5.85;82.02;100543.38;5090638;28;20200;-76
2023/02/01 10:24:43;;;;;;;9.97;2.53;;;;;;;5.87;82.12;100542.38;5085573;28;20586;-76
2023/02/01 10:27:17;;;;;;;11.50;2.30;;;;;;;5.92;82.11;100531.59;5088113;28;20200;-76
2023/02/01 10:29:48;;;;;;;9.07;1.83;;;;;;;5.96;81.48;100530.53;5087648;28;20242;-76
2023/02/01 10:32:17;;;;;;;14.03;2.53;;;;;;;6.00;81.36;100528.63;5082407;28;20657;-76
2023/02/01 10:34:53;;;;;;;5.10;2.20;;;;;;;6.01;80.80;100523.25;5087964;28;20697;-77
2023/02/01 10:37:27;;;;;;;12.00;2.30;;;;;;;6.06;80.87;100525.69;5087133;28;20200;-77
2023/02/01 10:39:55;;;;;;;10.13;2.00;;;;;;;6.08;80.69;100524.69;5088722;28;20223;-77
2023/02/01 10:42:26;;;;;;;10.67;2.43;;;;;;;6.09;79.99;100518.44;5087365;28;20298;-77
2023/02/01 10:44:55;;;;;;;10.60;2.80;;;;;;;6.12;79.69;100528.88;5084841;28;20229;-76
2023/02/01 10:47:22;;;;;;;6.33;2.17;;;;;;;6.14;79.45;100529.69;5087292;28;20222;-76
2023/02/01 10:49:56;;;;;;;9.23;2.47;;;;;;;6.17;79.33;100523.38;5089562;28;20228;-76
2023/02/01 10:52:34;;;;;;;6.70;2.37;;;;;;;6.20;79.31;100516.19;5085454;28;20206;-78
2023/02/01 10:55:29;;;;;;;15.03;2.43;;;;;;;6.20;79.07;100529.41;5085484;28;20248;-77
2023/02/01 10:58:00;;;;;;;9.97;2.27;;;;;;;6.23;78.54;100518.69;5084125;28;20211;-77
2023/02/01 11:00:27;;;;;;;6.77;2.70;;;;;;;6.23;77.81;100515.19;5087854;28;20608;-77
2023/02/01 11:02:56;;;;;;;7.33;2.17;;;;;;;6.24;77.53;100512.47;5087643;28;20199;-77
2023/02/01 11:05:26;;;;;;;12.87;3.80;;;;;;;6.25;77.47;100500.09;5079953;28;20229;-76
2023/02/01 11:07:55;;;;;;;7.10;2.23;;;;;;;6.26;77.93;100513.25;5092399;28;20208;-77
2023/02/01 11:10:40;;;;;;;9.30;2.50;;;;;;;6.24;77.25;100509.81;5087716;28;20250;-77
2023/02/01 11:13:15;;;;;;;10.77;2.87;;;;;;;6.26;77.45;100507.09;5085511;28;20687;-77
2023/02/01 11:15:44;;;;;;;7.10;2.10;;;;;;;6.27;77.26;100491.13;5083323;28;20223;-77
2023/02/01 11:18:17;;;;;;;9.20;2.40;;;;;;;6.28;76.90;100494.63;5088497;28;20203;-76
2023/02/01 11:20:48;;;;;;;11.63;2.07;;;;;;;6.30;76.79;100491.91;5085968;28;20220;-75
2023/02/01 11:23:17;;;;;;;11.43;2.57;;;;;;;6.31;76.78;100501.56;5087728;28;20208;-71
2023/02/01 11:25:52;;;;;;;6.73;2.20;;;;;;;6.31;76.85;100491.00;5083405;28;20242;-72
2023/02/01 11:28:21;;;;;;;10.70;2.83;;;;;;;6.30;76.44;100484.84;5084061;28;20728;-73
2023/02/01 11:30:48;;;;;;;10.30;2.73;;;;;;;6.32;76.83;100487.41;5086625;28;20224;-73
2023/02/01 11:33:19;;;;;;;14.60;2.17;;;;;;;6.33;76.17;100491.78;5098317;28;20204;-72
2023/02/01 11:35:48;;;;;;;8.60;2.93;;;;;;;6.33;76.31;100483.84;5092490;28;20227;-73
2023/02/01 11:38:22;;;;;;;11.03;2.50;;;;;;;6.32;76.51;100479.47;5089188;28;20200;-72
2023/02/01 11:40:49;;;;;;;11.23;2.20;;;;;;;6.33;76.63;100467.97;5091052;28;20192;-72
2023/02/01 11:43:23;;;;;;;9.20;2.53;;;;;;;6.34;76.35;100454.69;5085801;28;20274;-71
2023/02/01 11:45:58;;;;;;;9.50;2.20;;;;;;;6.31;76.19;100449.53;5082291;28;20270;-72
2023/02/01 11:48:25;;;;;;;16.03;2.67;;;;;;;6.34;75.93;100449.38;5091858;28;20219;-72
2023/02/01 11:51:04;;;;;;;10.40;2.40;;;;;;;6.31;76.16;100441.59;5093275;28;20580;-71
2023/02/01 11:53:45;;;;;;;9.67;2.50;;;;;;;6.30;76.10;100445.16;5089233;28;20200;-73
2023/02/01 11:56:21;;;;;;;8.73;1.77;;;;;;;6.30;76.09;100437.25;5090668;28;20227;-73